createdAt,value
2019-05-18T00:00:33.015Z,23.30
2019-05-18T00:01:33.009Z,21.90
2019-05-18T00:02:32.985Z,22.70
2019-05-18T00:03:32.976Z,22.80
2019-05-18T00:04:32.976Z,24.80
2019-05-18T00:05:32.929Z,24.10
2019-05-18T00:06:32.910Z,22.70
2019-05-18T00:07:32.894Z,23.70
2019-05-18T00:08:32.884Z,22.90
2019-05-18T00:09:32.862Z,23.60
2019-05-18T00:10:32.853Z,23.10
2019-05-18T00:11:32.828Z,24.20
2019-05-18T00:12:32.808Z,24.40
2019-05-18T00:13:32.793Z,23.90
2019-05-18T00:14:32.776Z,23.40
2019-05-18T00:15:32.762Z,23.60
2019-05-18T00:16:32.744Z,22.60
2019-05-18T00:17:32.727Z,25.00
2019-05-18T00:18:32.703Z,22.10
2019-05-18T00:19:32.687Z,22.80
2019-05-18T00:20:32.668Z,22.90
2019-05-18T00:21:32.658Z,24.50
2019-05-18T00:22:32.640Z,22.10
2019-05-18T00:23:32.617Z,24.60
2019-05-18T00:24:32.601Z,23.70
2019-05-18T00:25:32.585Z,24.10
2019-05-18T00:26:32.568Z,22.80
2019-05-18T00:27:32.548Z,22.90
2019-05-18T00:28:32.544Z,26.60
2019-05-18T00:29:32.515Z,25.50
2019-05-18T00:30:32.498Z,24.10
2019-05-18T00:31:32.487Z,24.60
2019-05-18T00:32:32.459Z,24.40
2019-05-18T00:33:32.459Z,25.20
2019-05-18T00:34:32.429Z,24.50
2019-05-18T00:35:32.418Z,23.40
2019-05-18T00:36:32.390Z,23.30
2019-05-18T00:37:32.375Z,23.30
2019-05-18T00:38:32.357Z,24.30
2019-05-18T00:39:32.396Z,24.70
2019-05-18T00:40:32.322Z,22.30
2019-05-18T00:41:32.305Z,25.80
2019-05-18T00:42:32.286Z,24.40
2019-05-18T00:43:32.270Z,24.70
2019-05-18T00:44:32.252Z,24.50
2019-05-18T00:45:32.234Z,24.70
2019-05-18T00:46:32.218Z,26.50
2019-05-18T00:47:40.985Z,24.60
2019-05-18T00:48:32.181Z,26.30
2019-05-18T00:49:32.169Z,23.40
2019-05-18T00:50:32.145Z,23.70
2019-05-18T00:51:32.128Z,25.20
2019-05-18T00:52:32.114Z,23.30
2019-05-18T00:53:32.094Z,24.20
2019-05-18T00:54:32.076Z,24.60
2019-05-18T00:55:32.063Z,24.10
2019-05-18T00:56:32.051Z,24.40
2019-05-18T00:57:32.024Z,26.50
2019-05-18T00:58:32.008Z,23.80
2019-05-18T00:59:31.991Z,24.40
2019-05-18T01:00:31.980Z,24.50
2019-05-18T01:01:31.960Z,23.80
2019-05-18T01:02:31.936Z,25.00
2019-05-18T01:03:31.920Z,25.20
2019-05-18T01:04:31.900Z,24.10
2019-05-18T01:05:31.897Z,25.80
2019-05-18T01:06:31.871Z,24.30
2019-05-18T01:07:31.853Z,27.10
2019-05-18T01:08:31.833Z,25.50
2019-05-18T01:09:31.819Z,25.90
2019-05-18T01:10:31.797Z,23.10
2019-05-18T01:11:31.783Z,25.20
2019-05-18T01:12:31.766Z,26.10
2019-05-18T01:13:31.744Z,23.90
2019-05-18T01:14:31.726Z,23.60
2019-05-18T01:15:31.715Z,23.80
2019-05-18T01:16:31.694Z,25.90
2019-05-18T01:17:31.670Z,24.70
2019-05-18T01:18:31.662Z,24.30
2019-05-18T01:19:31.637Z,23.70
2019-05-18T01:20:31.618Z,24.60
2019-05-18T01:21:31.640Z,23.50
2019-05-18T01:22:31.580Z,25.10
2019-05-18T01:23:31.564Z,23.90
2019-05-18T01:24:31.549Z,26.00
2019-05-18T01:25:31.535Z,24.80
2019-05-18T01:26:31.518Z,26.20
2019-05-18T01:27:31.494Z,24.80
2019-05-18T01:28:31.479Z,25.80
2019-05-18T01:29:31.462Z,26.40
2019-05-18T01:30:31.442Z,25.60
2019-05-18T01:31:31.424Z,26.10
2019-05-18T01:32:31.409Z,25.70
2019-05-18T01:33:31.390Z,24.30
2019-05-18T01:34:31.372Z,26.30
2019-05-18T01:35:31.354Z,27.00
2019-05-18T01:36:31.336Z,25.70
2019-05-18T01:37:31.326Z,24.60
2019-05-18T01:38:31.303Z,24.30
2019-05-18T01:39:31.280Z,25.40
2019-05-18T01:40:31.265Z,26.10
2019-05-18T01:41:31.248Z,25.50
2019-05-18T01:42:31.230Z,25.70
2019-05-18T01:43:31.211Z,26.20
2019-05-18T01:44:31.193Z,28.70
2019-05-18T01:45:31.173Z,26.70
2019-05-18T01:46:31.159Z,29.20
2019-05-18T01:47:31.138Z,28.10
2019-05-18T01:48:31.122Z,28.30
2019-05-18T01:49:31.152Z,28.40
2019-05-18T01:50:31.087Z,33.00
2019-05-18T01:51:31.067Z,25.70
2019-05-18T01:52:31.050Z,26.20
2019-05-18T01:53:31.042Z,27.10
2019-05-18T01:54:31.013Z,25.20
2019-05-18T01:55:30.998Z,27.70
2019-05-18T01:56:30.976Z,27.10
2019-05-18T01:57:30.959Z,26.70
2019-05-18T01:58:30.940Z,27.00
2019-05-18T01:59:30.924Z,28.20
2019-05-18T02:00:30.908Z,27.80
2019-05-18T02:01:30.894Z,28.20
2019-05-18T02:02:30.871Z,27.00
2019-05-18T02:03:30.855Z,25.20
2019-05-18T02:04:30.835Z,26.90
2019-05-18T02:05:30.818Z,27.10
2019-05-18T02:06:30.801Z,25.20
2019-05-18T02:07:30.782Z,26.20
2019-05-18T02:08:30.769Z,26.80
2019-05-18T02:09:30.746Z,28.20
2019-05-18T02:10:30.728Z,29.50
2019-05-18T02:11:30.714Z,27.50
2019-05-18T02:12:30.689Z,28.20
2019-05-18T02:13:30.677Z,27.10
2019-05-18T02:14:30.656Z,28.50
2019-05-18T02:15:30.637Z,27.70
2019-05-18T02:16:30.628Z,28.20
2019-05-18T02:17:30.606Z,26.50
2019-05-18T02:18:30.588Z,26.80
2019-05-18T02:19:30.566Z,27.80
2019-05-18T02:20:30.550Z,28.90
2019-05-18T02:21:30.529Z,25.70
2019-05-18T02:22:30.514Z,27.40
2019-05-18T02:23:30.493Z,32.10
2019-05-18T02:24:30.474Z,27.60
2019-05-18T02:25:30.458Z,29.30
2019-05-18T02:26:30.436Z,27.50
2019-05-18T02:27:30.434Z,27.30
2019-05-18T02:28:30.403Z,29.20
2019-05-18T02:29:30.387Z,27.90
2019-05-18T02:30:30.365Z,29.30
2019-05-18T02:31:30.352Z,30.10
2019-05-18T02:32:30.329Z,27.40
2019-05-18T02:33:30.312Z,28.40
2019-05-18T02:34:30.304Z,25.60
2019-05-18T02:35:30.277Z,25.60
2019-05-18T02:36:30.260Z,26.90
2019-05-18T02:37:30.244Z,29.10
2019-05-18T02:38:30.222Z,28.60
2019-05-18T02:39:30.202Z,28.60
2019-05-18T02:40:30.189Z,28.40
2019-05-18T02:41:30.169Z,28.40
2019-05-18T02:42:30.918Z,29.00
2019-05-18T02:43:30.218Z,28.60
2019-05-18T02:44:30.113Z,29.10
2019-05-18T02:45:30.094Z,28.60
2019-05-18T02:46:30.081Z,28.30
2019-05-18T02:47:30.063Z,28.80
2019-05-18T02:48:47.142Z,27.90
2019-05-18T02:49:30.025Z,29.90
2019-05-18T02:50:30.004Z,28.20
2019-05-18T02:51:29.986Z,28.10
2019-05-18T02:52:29.970Z,28.40
2019-05-18T02:53:29.950Z,28.10
2019-05-18T02:54:29.931Z,27.60
2019-05-18T02:55:29.912Z,27.70
2019-05-18T02:56:29.892Z,27.50
2019-05-18T02:57:29.876Z,29.00
2019-05-18T02:58:29.867Z,28.70
2019-05-18T02:59:29.838Z,30.60
2019-05-18T03:00:29.820Z,28.50
2019-05-18T03:01:29.811Z,26.30
2019-05-18T03:02:29.785Z,29.60
2019-05-18T03:03:29.766Z,28.80
2019-05-18T03:04:29.748Z,28.50
2019-05-18T03:05:29.742Z,27.70
2019-05-18T03:06:29.711Z,28.10
2019-05-18T03:07:29.693Z,26.80
2019-05-18T03:08:29.675Z,26.60
2019-05-18T03:09:29.667Z,29.30
2019-05-18T03:10:29.640Z,29.00
2019-05-18T03:11:29.621Z,30.20
2019-05-18T03:12:29.604Z,28.80
2019-05-18T03:13:29.593Z,30.70
2019-05-18T03:14:29.572Z,28.30
2019-05-18T03:15:29.549Z,30.50
2019-05-18T03:16:29.536Z,29.30
2019-05-18T03:17:29.521Z,29.70
2019-05-18T03:18:29.499Z,29.00
2019-05-18T03:19:29.477Z,28.40
2019-05-18T03:20:29.461Z,28.20
2019-05-18T03:21:29.436Z,27.70
2019-05-18T03:22:29.424Z,26.40
2019-05-18T03:23:29.422Z,26.40
2019-05-18T03:24:29.386Z,28.30
2019-05-18T03:25:29.375Z,28.50
2019-05-18T03:26:29.349Z,28.90
2019-05-18T03:27:29.328Z,30.70
2019-05-18T03:28:29.319Z,28.40
2019-05-18T03:29:29.290Z,29.00
2019-05-18T03:30:29.289Z,29.60
2019-05-18T03:31:29.268Z,29.20
2019-05-18T03:32:29.251Z,29.20
2019-05-18T03:33:30.393Z,28.00
2019-05-18T03:34:29.198Z,26.60
2019-05-18T03:35:29.194Z,27.80
2019-05-18T03:36:29.162Z,27.60
2019-05-18T03:37:29.146Z,29.80
2019-05-18T03:38:29.127Z,30.30
2019-05-18T03:39:29.107Z,29.10
2019-05-18T03:40:29.089Z,29.10
2019-05-18T03:41:29.085Z,29.00
2019-05-18T03:42:29.051Z,27.10
2019-05-18T03:43:29.033Z,26.00
2019-05-18T03:44:29.016Z,27.50
2019-05-18T03:45:28.999Z,28.60
2019-05-18T03:46:28.982Z,30.40
2019-05-18T03:47:28.966Z,29.90
2019-05-18T03:48:28.939Z,30.30
2019-05-18T03:49:28.928Z,28.80
2019-05-18T03:50:28.905Z,27.60
2019-05-18T03:51:28.894Z,29.90
2019-05-18T03:52:28.867Z,28.30
2019-05-18T03:53:28.849Z,31.60
2019-05-18T03:54:28.861Z,28.00
2019-05-18T03:55:28.821Z,28.20
2019-05-18T03:56:28.797Z,28.20
2019-05-18T03:57:28.774Z,29.20
2019-05-18T03:58:28.760Z,30.10
2019-05-18T03:59:28.809Z,30.60
2019-05-18T04:00:28.728Z,28.50
2019-05-18T04:01:28.700Z,31.00
2019-05-18T04:02:28.687Z,30.40
2019-05-18T04:03:28.665Z,30.40
2019-05-18T04:04:28.649Z,27.40
2019-05-18T04:05:28.626Z,30.10
2019-05-18T04:06:28.689Z,30.40
2019-05-18T04:07:28.590Z,31.30
2019-05-18T04:08:28.572Z,30.20
2019-05-18T04:09:28.553Z,29.00
2019-05-18T04:10:28.542Z,29.00
2019-05-18T04:11:28.525Z,29.80
2019-05-18T04:12:28.499Z,28.70
2019-05-18T04:13:28.484Z,30.10
2019-05-18T04:14:28.463Z,29.40
2019-05-18T04:15:28.447Z,30.50
2019-05-18T04:16:28.425Z,28.40
2019-05-18T04:17:28.408Z,32.10
2019-05-18T04:18:28.399Z,28.70
2019-05-18T04:19:44.875Z,27.90
2019-05-18T04:20:28.356Z,28.70
2019-05-18T04:21:28.338Z,31.20
2019-05-18T04:22:28.315Z,29.00
2019-05-18T04:23:28.298Z,30.20
2019-05-18T04:24:28.293Z,28.90
2019-05-18T04:25:28.269Z,28.80
2019-05-18T04:26:28.245Z,30.80
2019-05-18T04:27:28.224Z,27.30
2019-05-18T04:28:28.207Z,28.50
2019-05-18T04:29:28.194Z,29.40
2019-05-18T04:30:28.169Z,28.00
2019-05-18T04:31:31.977Z,28.50
2019-05-18T04:32:28.141Z,28.30
2019-05-18T04:33:28.123Z,30.20
2019-05-18T04:34:28.095Z,27.10
2019-05-18T04:35:28.079Z,28.10
2019-05-18T04:36:28.170Z,28.90
2019-05-18T04:37:28.040Z,28.40
2019-05-18T04:38:28.029Z,28.70
2019-05-18T04:39:28.011Z,29.50
2019-05-18T04:40:27.988Z,27.20
2019-05-18T04:41:27.970Z,30.10
2019-05-18T04:42:27.954Z,28.40
2019-05-18T04:43:27.936Z,26.20
2019-05-18T04:44:27.925Z,28.20
2019-05-18T04:45:27.975Z,30.50
2019-05-18T04:46:27.879Z,30.20
2019-05-18T04:47:27.865Z,30.20
2019-05-18T04:48:27.842Z,27.90
2019-05-18T04:49:27.822Z,29.50
2019-05-18T04:50:27.811Z,30.50
2019-05-18T04:51:27.792Z,29.70
2019-05-18T04:52:27.785Z,30.30
2019-05-18T04:53:27.754Z,30.30
2019-05-18T04:54:27.731Z,28.30
2019-05-18T04:55:27.715Z,28.60
2019-05-18T04:56:27.697Z,30.10
2019-05-18T04:57:27.678Z,27.70
2019-05-18T04:58:27.662Z,28.40
2019-05-18T04:59:27.646Z,28.80
2019-05-18T05:00:27.638Z,28.00
2019-05-18T05:01:27.617Z,29.00
2019-05-18T05:02:27.594Z,30.00
2019-05-18T05:03:27.573Z,28.50
2019-05-18T05:04:27.557Z,28.40
2019-05-18T05:05:27.539Z,28.70
2019-05-18T05:06:27.521Z,31.50
2019-05-18T05:07:27.515Z,31.90
2019-05-18T05:08:27.485Z,30.60
2019-05-18T05:09:27.465Z,29.90
2019-05-18T05:10:27.454Z,29.50
2019-05-18T05:11:27.431Z,28.70
2019-05-18T05:12:27.412Z,27.40
2019-05-18T05:13:27.403Z,30.30
2019-05-18T05:14:27.383Z,29.20
2019-05-18T05:15:27.359Z,29.40
2019-05-18T05:16:27.340Z,31.60
2019-05-18T05:17:27.333Z,30.00
2019-05-18T05:18:27.308Z,28.80
2019-05-18T05:19:27.291Z,29.20
2019-05-18T05:20:27.279Z,29.30
2019-05-18T05:21:27.269Z,32.00
2019-05-18T05:22:27.241Z,28.60
2019-05-18T05:23:27.221Z,29.60
2019-05-18T05:24:27.206Z,30.60
2019-05-18T05:25:27.186Z,28.40
2019-05-18T05:26:27.169Z,29.50
2019-05-18T05:27:27.150Z,33.00
2019-05-18T05:28:27.135Z,27.80
2019-05-18T05:29:27.129Z,28.40
2019-05-18T05:30:27.105Z,27.00
2019-05-18T05:31:27.088Z,28.70
2019-05-18T05:32:27.062Z,28.90
2019-05-18T05:33:27.048Z,28.70
2019-05-18T05:34:27.037Z,28.30
2019-05-18T05:35:27.011Z,27.70
2019-05-18T05:36:26.996Z,29.00
2019-05-18T05:37:26.976Z,27.70
2019-05-18T05:38:26.957Z,27.90
2019-05-18T05:39:26.947Z,29.10
2019-05-18T05:40:26.921Z,29.80
2019-05-18T05:41:26.905Z,28.80
2019-05-18T05:42:26.890Z,30.30
2019-05-18T05:43:26.869Z,31.60
2019-05-18T05:44:26.862Z,29.60
2019-05-18T05:45:26.834Z,27.90
2019-05-18T05:46:26.817Z,28.40
2019-05-18T05:47:26.801Z,27.50
2019-05-18T05:48:26.782Z,28.20
2019-05-18T05:49:26.765Z,28.80
2019-05-18T05:50:35.520Z,26.40
2019-05-18T05:51:26.739Z,26.80
2019-05-18T05:52:26.712Z,32.00
2019-05-18T05:53:26.696Z,25.40
2019-05-18T05:54:26.678Z,27.70
2019-05-18T05:55:26.662Z,28.20
2019-05-18T05:56:26.643Z,28.60
2019-05-18T05:57:26.626Z,26.50
2019-05-18T05:58:26.610Z,27.50
2019-05-18T05:59:26.595Z,27.10
2019-05-18T06:00:26.576Z,27.30
2019-05-18T06:01:26.558Z,27.90
2019-05-18T06:02:26.542Z,27.70
2019-05-18T06:03:26.523Z,27.70
2019-05-18T06:04:26.510Z,27.20
2019-05-18T06:05:26.491Z,27.00
2019-05-18T06:06:26.472Z,27.10
2019-05-18T06:07:26.456Z,28.00
2019-05-18T06:08:26.438Z,28.70
2019-05-18T06:09:26.422Z,28.20
2019-05-18T06:10:26.404Z,27.00
2019-05-18T06:11:26.385Z,26.30
2019-05-18T06:12:26.380Z,27.00
2019-05-18T06:13:26.352Z,29.20
2019-05-18T06:14:26.338Z,27.90
2019-05-18T06:15:26.319Z,27.60
2019-05-18T06:16:26.302Z,30.80
2019-05-18T06:17:26.286Z,28.50
2019-05-18T06:18:26.268Z,27.70
2019-05-18T06:19:26.263Z,28.60
2019-05-18T06:20:26.237Z,26.30
2019-05-18T06:21:26.221Z,27.00
2019-05-18T06:22:26.207Z,26.60
2019-05-18T06:23:26.188Z,27.10
2019-05-18T06:24:26.172Z,27.10
2019-05-18T06:25:26.152Z,27.40
2019-05-18T06:26:26.154Z,28.80
2019-05-18T06:27:26.119Z,27.50
2019-05-18T06:28:26.113Z,25.80
2019-05-18T06:29:26.087Z,27.80
2019-05-18T06:30:26.082Z,27.10
2019-05-18T06:31:26.063Z,26.80
2019-05-18T06:32:26.038Z,27.00
2019-05-18T06:33:26.028Z,27.50
2019-05-18T06:34:26.007Z,25.90
2019-05-18T06:35:25.998Z,26.70
2019-05-18T06:36:25.975Z,24.90
2019-05-18T06:37:25.959Z,26.50
2019-05-18T06:38:25.947Z,26.50
2019-05-18T06:39:25.936Z,25.30
2019-05-18T06:40:25.912Z,25.90
2019-05-18T06:41:25.899Z,27.10
2019-05-18T06:42:25.880Z,25.60
2019-05-18T06:43:25.877Z,26.10
2019-05-18T06:44:25.848Z,25.90
2019-05-18T06:45:25.841Z,26.10
2019-05-18T06:46:25.820Z,26.00
2019-05-18T06:47:25.807Z,26.90
2019-05-18T06:48:25.804Z,24.60
2019-05-18T06:49:25.778Z,24.90
2019-05-18T06:50:25.766Z,24.60
2019-05-18T06:51:25.740Z,24.00
2019-05-18T06:52:25.737Z,23.90
2019-05-18T06:53:25.716Z,24.40
2019-05-18T06:54:25.708Z,23.60
2019-05-18T06:55:25.680Z,23.60
2019-05-18T06:56:25.670Z,24.80
2019-05-18T06:57:25.653Z,24.90
2019-05-18T06:58:25.634Z,24.30
2019-05-18T06:59:25.628Z,24.80
2019-05-18T07:00:25.611Z,22.80
2019-05-18T07:01:25.592Z,23.70
2019-05-18T07:02:25.575Z,24.80
2019-05-18T07:03:25.582Z,23.60
2019-05-18T07:04:25.543Z,23.00
2019-05-18T07:05:25.528Z,22.60
2019-05-18T07:06:25.525Z,23.80
2019-05-18T07:07:25.505Z,24.00
2019-05-18T07:08:25.486Z,24.00
2019-05-18T07:09:25.568Z,23.10
2019-05-18T07:10:25.454Z,23.20
2019-05-18T07:11:25.442Z,21.60
2019-05-18T07:12:25.428Z,22.50
2019-05-18T07:13:25.454Z,22.50
2019-05-18T07:14:26.227Z,22.10
2019-05-18T07:15:25.388Z,22.60
2019-05-18T07:16:25.369Z,24.00
2019-05-18T07:17:25.355Z,22.50
2019-05-18T07:18:30.739Z,22.90
2019-05-18T07:19:25.418Z,23.80
2019-05-18T07:20:25.338Z,23.60
2019-05-18T07:21:25.298Z,22.70
2019-05-18T07:22:25.292Z,22.80
2019-05-18T07:23:25.270Z,23.70
2019-05-18T07:24:25.263Z,24.30
2019-05-18T07:25:25.244Z,23.30
2019-05-18T07:26:25.228Z,23.00
2019-05-18T07:27:25.216Z,23.10
2019-05-18T07:28:25.199Z,23.20
2019-05-18T07:29:25.187Z,22.90
2019-05-18T07:30:25.173Z,22.20
2019-05-18T07:31:31.140Z,22.30
2019-05-18T07:32:25.149Z,22.00
2019-05-18T07:33:58.525Z,22.00
2019-05-18T07:34:26.672Z,22.50
2019-05-18T07:35:25.106Z,22.40
2019-05-18T07:36:25.099Z,21.50
2019-05-18T07:37:25.138Z,21.10
2019-05-18T07:38:26.151Z,22.20
2019-05-18T07:39:25.055Z,20.90
2019-05-18T07:40:25.045Z,21.30
2019-05-18T07:41:25.032Z,20.70
2019-05-18T07:42:25.012Z,21.30
2019-05-18T07:43:24.998Z,21.00
2019-05-18T07:44:24.987Z,20.20
2019-05-18T07:45:24.977Z,20.70
2019-05-18T07:46:24.961Z,20.20
2019-05-18T07:47:24.945Z,19.70
2019-05-18T07:48:24.932Z,20.00
2019-05-18T07:49:24.919Z,19.70
2019-05-18T07:50:24.910Z,20.00
2019-05-18T07:51:36.244Z,19.10
2019-05-18T07:52:24.884Z,18.10
2019-05-18T07:53:24.872Z,18.10
2019-05-18T07:54:24.858Z,18.40
2019-05-18T07:55:24.855Z,17.90
2019-05-18T07:56:24.837Z,17.20
2019-05-18T07:57:24.832Z,17.20
2019-05-18T07:58:24.814Z,17.70
2019-05-18T07:59:24.799Z,17.80
2019-05-18T08:00:24.786Z,16.60
2019-05-18T08:01:24.774Z,17.10
2019-05-18T08:02:24.770Z,16.10
2019-05-18T08:03:24.754Z,15.80
2019-05-18T08:04:24.747Z,17.30
2019-05-18T08:05:24.731Z,16.70
2019-05-18T08:06:24.724Z,16.80
2019-05-18T08:07:24.719Z,17.70
2019-05-18T08:08:24.696Z,18.90
2019-05-18T08:09:24.683Z,21.20
2019-05-18T08:10:24.687Z,18.60
2019-05-18T08:11:24.661Z,15.70
2019-05-18T08:12:24.651Z,15.90
2019-05-18T08:13:24.639Z,16.30
2019-05-18T08:14:24.629Z,17.00
2019-05-18T08:15:24.625Z,17.40
2019-05-18T08:16:24.610Z,17.00
2019-05-18T08:17:24.603Z,15.70
2019-05-18T08:18:24.603Z,17.80
2019-05-18T08:19:24.587Z,16.40
2019-05-18T08:20:24.580Z,16.50
2019-05-18T08:21:24.572Z,16.90
2019-05-18T08:22:24.562Z,15.90
2019-05-18T08:23:24.556Z,16.70
2019-05-18T08:24:24.552Z,16.00
2019-05-18T08:25:24.541Z,16.50
2019-05-18T08:26:24.546Z,15.90
2019-05-18T08:27:24.525Z,16.80
2019-05-18T08:28:24.517Z,16.40
2019-05-18T08:29:24.513Z,15.20
2019-05-18T08:30:24.507Z,16.30
2019-05-18T08:31:24.582Z,16.70
2019-05-18T08:32:24.494Z,16.70
2019-05-18T08:33:24.505Z,17.10
2019-05-18T08:34:24.481Z,17.60
2019-05-18T08:35:27.082Z,20.90
2019-05-18T08:36:24.465Z,19.90
2019-05-18T08:37:24.461Z,19.40
2019-05-18T08:38:24.455Z,17.70
2019-05-18T08:39:24.446Z,20.10
2019-05-18T08:40:24.439Z,16.90
2019-05-18T08:41:24.435Z,15.90
2019-05-18T08:42:24.430Z,15.80
2019-05-18T08:43:24.432Z,15.90
2019-05-18T08:44:24.434Z,14.60
2019-05-18T08:45:24.422Z,14.60
2019-05-18T08:46:24.415Z,14.50
2019-05-18T08:47:24.411Z,14.40
2019-05-18T08:48:24.409Z,15.50
2019-05-18T08:49:24.404Z,14.80
2019-05-18T08:50:24.402Z,14.20
2019-05-18T08:51:24.401Z,13.60
2019-05-18T08:52:24.393Z,12.80
2019-05-18T08:53:24.396Z,13.20
2019-05-18T08:54:24.388Z,13.40
2019-05-18T08:55:24.394Z,14.30
2019-05-18T08:56:24.386Z,13.90
2019-05-18T08:57:24.385Z,13.40
2019-05-18T08:58:24.381Z,13.60
2019-05-18T08:59:24.378Z,14.70
2019-05-18T09:00:24.373Z,13.20
2019-05-18T09:01:24.369Z,13.90
2019-05-18T09:02:24.370Z,14.40
2019-05-18T09:03:24.369Z,14.00
2019-05-18T09:04:24.360Z,13.70
2019-05-18T09:05:24.359Z,13.40
2019-05-18T09:06:24.357Z,14.00
2019-05-18T09:07:24.359Z,12.30
2019-05-18T09:08:24.350Z,11.70
2019-05-18T09:09:24.344Z,12.20
2019-05-18T09:10:24.345Z,14.20
2019-05-18T09:11:24.346Z,12.60
2019-05-18T09:12:24.337Z,13.00
2019-05-18T09:13:24.334Z,12.50
2019-05-18T09:14:24.339Z,12.40
2019-05-18T09:15:24.327Z,14.10
2019-05-18T09:16:24.335Z,18.80
2019-05-18T09:17:24.382Z,12.70
2019-05-18T09:18:24.342Z,13.00
2019-05-18T09:19:24.316Z,15.50
2019-05-18T09:20:24.309Z,11.40
2019-05-18T09:21:24.306Z,12.30
2019-05-18T09:22:24.306Z,12.50
2019-05-18T09:23:24.302Z,11.50
2019-05-18T09:24:24.299Z,11.80
2019-05-18T09:25:24.299Z,11.10
2019-05-18T09:26:24.290Z,11.20
2019-05-18T09:27:24.286Z,11.20
2019-05-18T09:28:24.289Z,11.60
2019-05-18T09:29:24.308Z,10.90
2019-05-18T09:30:24.276Z,12.00
2019-05-18T09:31:24.273Z,12.00
2019-05-18T09:32:24.317Z,11.80
2019-05-18T09:33:24.295Z,11.70
2019-05-18T09:34:24.261Z,11.80
2019-05-18T09:35:24.577Z,11.90
2019-05-18T09:36:24.257Z,12.50
2019-05-18T09:37:24.249Z,11.60
2019-05-18T09:38:24.245Z,11.80
2019-05-18T09:39:24.243Z,11.60
2019-05-18T09:40:24.242Z,11.90
2019-05-18T09:41:24.236Z,12.60
2019-05-18T09:42:24.230Z,12.60
2019-05-18T09:43:24.228Z,12.20
2019-05-18T09:44:24.223Z,11.90
2019-05-18T09:45:24.218Z,11.50
2019-05-18T09:46:24.218Z,11.40
2019-05-18T09:47:24.218Z,11.40
2019-05-18T09:48:24.233Z,12.40
2019-05-18T09:49:24.541Z,12.20
2019-05-18T09:51:24.196Z,13.40
2019-05-18T09:52:43.551Z,13.10
2019-05-18T09:53:24.187Z,13.40
2019-05-18T09:55:24.202Z,12.10
2019-05-18T09:56:24.719Z,12.40
2019-05-18T09:57:24.380Z,10.80
2019-05-18T09:58:24.172Z,9.80
2019-05-18T09:59:24.160Z,10.50
2019-05-18T10:00:24.154Z,9.40
2019-05-18T10:01:24.149Z,10.50
2019-05-18T10:02:24.148Z,10.50
2019-05-18T10:03:24.140Z,11.00
2019-05-18T10:04:24.142Z,10.90
2019-05-18T10:05:24.131Z,10.30
2019-05-18T10:06:24.130Z,10.30
2019-05-18T10:07:24.119Z,11.10
2019-05-18T10:08:24.111Z,11.10
2019-05-18T10:09:24.202Z,10.30
2019-05-18T10:10:24.107Z,10.70
2019-05-18T10:11:24.195Z,11.60
2019-05-18T10:12:24.812Z,11.90
2019-05-18T10:13:24.724Z,11.70
2019-05-18T10:14:24.419Z,10.80
2019-05-18T10:15:24.397Z,11.30
2019-05-18T10:16:24.785Z,11.40
2019-05-18T10:17:24.098Z,11.90
2019-05-18T10:18:25.471Z,11.10
2019-05-18T10:19:24.401Z,10.50
2019-05-18T10:20:32.411Z,10.90
2019-05-18T10:21:24.077Z,10.60
2019-05-18T10:22:24.100Z,11.30
2019-05-18T10:23:24.071Z,10.80
2019-05-18T10:24:24.266Z,10.70
2019-05-18T10:25:25.762Z,10.40
2019-05-18T10:27:24.338Z,10.60
2019-05-18T10:28:24.337Z,10.70
2019-05-18T10:29:23.988Z,10.50
2019-05-18T10:30:23.984Z,10.00
2019-05-18T10:31:24.296Z,11.10
2019-05-18T10:32:23.973Z,10.30
2019-05-18T10:33:26.115Z,13.90
2019-05-18T10:34:23.964Z,12.60
2019-05-18T10:35:23.949Z,12.30
2019-05-18T10:36:23.946Z,13.90
2019-05-18T10:37:23.929Z,11.50
2019-05-18T10:38:24.247Z,14.20
2019-05-18T10:39:23.913Z,12.50
2019-05-18T10:40:23.916Z,11.90
2019-05-18T10:41:23.899Z,11.40
2019-05-18T10:42:23.889Z,12.30
2019-05-18T10:43:23.889Z,14.20
2019-05-18T10:44:23.881Z,14.10
2019-05-18T10:45:23.866Z,13.10
2019-05-18T10:47:23.855Z,12.10
2019-05-18T10:48:23.840Z,12.70
2019-05-18T10:49:23.838Z,12.70
2019-05-18T10:50:23.830Z,13.50
2019-05-18T10:51:23.818Z,13.00
2019-05-18T10:52:23.817Z,12.60
2019-05-18T10:53:28.841Z,12.00
2019-05-18T10:54:23.801Z,12.70
2019-05-18T10:55:23.801Z,12.40
2019-05-18T10:56:23.779Z,12.30
2019-05-18T10:57:23.772Z,11.40
2019-05-18T10:58:23.769Z,12.50
2019-05-18T10:59:23.754Z,12.20
2019-05-18T11:00:23.756Z,12.30
2019-05-18T11:01:23.739Z,12.20
2019-05-18T11:02:23.735Z,11.00
2019-05-18T11:03:23.725Z,12.20
2019-05-18T11:04:23.713Z,11.70
2019-05-18T11:05:23.708Z,12.60
2019-05-18T11:06:23.706Z,11.80
2019-05-18T11:07:23.696Z,12.10
2019-05-18T11:08:23.687Z,12.00
2019-05-18T11:09:23.676Z,12.30
2019-05-18T11:10:23.670Z,12.20
2019-05-18T11:11:23.666Z,11.60
2019-05-18T11:12:23.660Z,11.10
2019-05-18T11:13:23.644Z,11.80
2019-05-18T11:14:23.639Z,12.20
2019-05-18T11:15:23.647Z,12.70
2019-05-18T11:16:23.626Z,11.60
2019-05-18T11:17:23.628Z,11.60
2019-05-18T11:18:23.612Z,9.90
2019-05-18T11:19:23.603Z,9.40
2019-05-18T11:20:23.598Z,10.30
2019-05-18T11:21:23.652Z,10.20
2019-05-18T11:22:23.643Z,10.50
2019-05-18T11:23:23.594Z,10.30
2019-05-18T11:24:23.571Z,10.40
2019-05-18T11:25:23.558Z,9.50
2019-05-18T11:26:23.556Z,11.50
2019-05-18T11:27:23.556Z,12.70
2019-05-18T11:28:23.540Z,18.90
2019-05-18T11:29:24.266Z,12.30
2019-05-18T11:30:23.523Z,11.20
2019-05-18T11:31:23.517Z,11.40
2019-05-18T11:32:23.514Z,11.10
2019-05-18T11:33:23.525Z,10.70
2019-05-18T11:34:23.496Z,10.90
2019-05-18T11:35:23.491Z,10.40
2019-05-18T11:36:23.501Z,9.70
2019-05-18T11:37:23.495Z,9.60
2019-05-18T11:38:23.497Z,10.20
2019-05-18T11:39:23.466Z,10.40
2019-05-18T11:40:23.463Z,11.20
2019-05-18T11:41:23.451Z,12.10
2019-05-18T11:42:23.444Z,11.00
2019-05-18T11:43:23.434Z,10.70
2019-05-18T11:44:23.424Z,10.00
2019-05-18T11:45:23.420Z,10.30
2019-05-18T11:46:23.413Z,11.50
2019-05-18T11:47:23.410Z,11.70
2019-05-18T11:48:23.396Z,12.50
2019-05-18T11:49:23.398Z,11.50
2019-05-18T11:50:23.382Z,11.90
2019-05-18T11:51:23.387Z,11.30
2019-05-18T11:52:23.370Z,11.40
2019-05-18T11:53:23.369Z,11.50
2019-05-18T11:54:23.353Z,11.20
2019-05-18T11:55:23.348Z,9.70
2019-05-18T11:56:23.337Z,10.10
2019-05-18T11:57:23.339Z,10.70
2019-05-18T11:58:23.342Z,9.40
2019-05-18T11:59:23.320Z,9.80
2019-05-18T12:00:23.317Z,10.10
2019-05-18T12:01:23.303Z,8.80
2019-05-18T12:02:23.296Z,9.80
2019-05-18T12:03:23.289Z,9.40
2019-05-18T12:04:23.289Z,8.50
2019-05-18T12:05:23.274Z,8.20
2019-05-18T12:06:23.271Z,8.30
2019-05-18T12:07:23.272Z,8.20
2019-05-18T12:08:23.255Z,9.40
2019-05-18T12:09:23.275Z,8.20
2019-05-18T12:10:23.240Z,6.30
2019-05-18T12:11:23.241Z,7.10
2019-05-18T12:12:23.223Z,7.10
2019-05-18T12:13:23.226Z,8.00
2019-05-18T12:14:23.217Z,7.10
2019-05-18T12:15:23.221Z,6.00
2019-05-18T12:16:23.197Z,6.60
2019-05-18T12:17:23.193Z,6.10
2019-05-18T12:18:23.181Z,5.40
2019-05-18T12:19:23.187Z,6.00
2019-05-18T12:20:23.168Z,5.40
2019-05-18T12:21:23.159Z,5.90
2019-05-18T12:22:23.158Z,6.00
2019-05-18T12:23:23.151Z,6.40
2019-05-18T12:24:23.136Z,6.30
2019-05-18T12:25:23.141Z,6.50
2019-05-18T12:26:23.128Z,6.60
2019-05-18T12:27:23.120Z,6.40
2019-05-18T12:28:23.106Z,5.80
2019-05-18T12:29:23.101Z,5.30
2019-05-18T12:30:23.096Z,5.70
2019-05-18T12:31:23.094Z,5.40
2019-05-18T12:32:23.081Z,6.90
2019-05-18T12:33:23.078Z,5.20
2019-05-18T12:34:23.064Z,5.80
2019-05-18T12:35:23.054Z,5.10
2019-05-18T12:36:23.048Z,4.70
2019-05-18T12:37:23.045Z,5.00
2019-05-18T12:38:23.030Z,6.30
2019-05-18T12:39:23.024Z,4.40
2019-05-18T12:40:23.024Z,5.20
2019-05-18T12:41:23.010Z,5.40
2019-05-18T12:42:23.008Z,6.10
2019-05-18T12:43:22.996Z,6.10
2019-05-18T12:44:23.011Z,6.20
2019-05-18T12:45:22.989Z,6.10
2019-05-18T12:46:22.982Z,6.50
2019-05-18T12:47:22.969Z,6.40
2019-05-18T12:48:22.962Z,6.40
2019-05-18T12:49:22.951Z,5.60
2019-05-18T12:50:22.945Z,5.90
2019-05-18T12:51:22.938Z,5.80
2019-05-18T12:52:22.932Z,5.60
2019-05-18T12:53:22.925Z,5.20
2019-05-18T12:54:31.010Z,5.40
2019-05-18T12:55:22.919Z,5.30
2019-05-18T12:56:22.968Z,5.30
2019-05-18T12:57:22.896Z,5.20
2019-05-18T12:58:22.889Z,5.20